Time;durP1;ratioP1;P1;durP2;ratioP2;P2;SDS_P1;SDS_P2;PMS_P1;PMS_P2;Temp;Humidity;BMP_temperature;BMP_pressure;BME280_temperature;BME280_humidity;BME280_pressure;Samples;Min_cycle;Max_cycle;Signal;HPM_P1;HPM_P2
2021/12/19 00:01:13;;;;;;;13.43;11.02;;;;;;;18.20;41.55;102566.28;5053768;28;20386;-75
2021/12/19 00:09:08;;;;;;;12.10;10.60;;;;;;;18.23;41.37;102558.94;5053665;28;20041;-75
2021/12/19 00:11:36;;;;;;;13.73;10.45;;;;;;;18.23;41.40;102553.59;5052748;28;20045;-75
2021/12/19 00:14:04;;;;;;;11.80;10.57;;;;;;;18.25;41.35;102548.13;5053658;28;20055;-75
2021/12/19 00:16:33;;;;;;;11.70;10.30;;;;;;;18.24;41.14;102533.88;5053571;28;20048;-75
2021/12/19 00:19:00;;;;;;;13.82;11.57;;;;;;;18.26;41.21;102531.09;5052530;28;20040;-75
2021/12/19 00:21:28;;;;;;;13.27;11.82;;;;;;;18.27;41.00;102533.72;5053982;28;20044;-75
2021/12/19 00:23:56;;;;;;;16.02;11.80;;;;;;;18.28;41.00;102523.84;5053527;28;20045;-75
2021/12/19 00:26:24;;;;;;;15.27;11.57;;;;;;;18.30;40.99;102524.59;5052200;28;20064;-75
2021/12/19 00:28:52;;;;;;;15.50;12.68;;;;;;;18.32;40.96;102527.22;5053345;28;20052;-75
2021/12/19 00:31:19;;;;;;;15.55;12.77;;;;;;;18.33;40.90;102527.13;5053979;28;20049;-75
2021/12/19 00:33:47;;;;;;;12.75;11.27;;;;;;;18.35;40.87;102513.63;5053269;28;20053;-75
2021/12/19 00:36:14;;;;;;;15.02;12.45;;;;;;;18.36;40.80;102510.03;5053791;28;20401;-75
2021/12/19 00:38:41;;;;;;;15.30;12.25;;;;;;;18.37;40.69;102503.69;5053240;28;20052;-75
2021/12/19 00:41:09;;;;;;;14.07;11.48;;;;;;;18.36;40.69;102493.94;5053183;28;20045;-75
2021/12/19 00:43:45;;;;;;;13.35;11.95;;;;;;;18.37;40.46;102487.63;4970575;28;2357981;-75
2021/12/19 00:46:16;;;;;;;13.70;12.20;;;;;;;18.37;40.71;102491.16;5054005;28;20049;-75
2021/12/19 00:48:46;;;;;;;14.63;12.88;;;;;;;18.37;40.76;102490.28;5054464;28;20405;-75
2021/12/19 00:51:18;;;;;;;16.25;13.32;;;;;;;18.36;40.75;102486.75;5053332;28;20056;-75
2021/12/19 00:53:46;;;;;;;14.48;12.88;;;;;;;18.36;40.92;102486.75;5054325;28;20060;-75
2021/12/19 00:56:14;;;;;;;15.55;13.18;;;;;;;18.37;40.90;102487.63;5052233;28;20075;-75
2021/12/19 00:58:43;;;;;;;14.93;12.60;;;;;;;18.36;40.90;102481.38;5053669;28;20045;-75
2021/12/19 01:01:13;;;;;;;14.90;13.23;;;;;;;18.38;40.88;102483.97;5053468;28;20081;-75
2021/12/19 01:03:44;;;;;;;16.02;12.68;;;;;;;18.37;40.97;102477.75;5053862;28;20045;-75
2021/12/19 01:06:12;;;;;;;13.90;12.32;;;;;;;18.37;40.96;102476.88;5053973;28;20037;-75
2021/12/19 01:08:39;;;;;;;15.43;13.38;;;;;;;18.36;40.93;102488.56;5053906;28;20045;-75
2021/12/19 01:11:07;;;;;;;17.65;13.65;;;;;;;18.35;40.99;102479.66;5053546;28;20049;-75
2021/12/19 01:13:34;;;;;;;18.80;14.48;;;;;;;18.36;40.85;102469.81;5052865;28;20366;-75
2021/12/19 01:16:02;;;;;;;18.88;14.77;;;;;;;18.35;40.76;102468.03;5053448;28;20041;-75
2021/12/19 01:18:30;;;;;;;15.75;13.80;;;;;;;18.34;40.86;102463.66;5052341;28;20041;-75
2021/12/19 01:20:58;;;;;;;17.50;13.98;;;;;;;18.35;41.06;102470.72;5053508;28;20409;-75
2021/12/19 01:23:25;;;;;;;16.55;13.35;;;;;;;18.34;41.10;102466.31;5052443;28;20049;-75
2021/12/19 01:25:52;;;;;;;17.95;13.48;;;;;;;18.33;41.02;102464.59;5053441;28;20444;-75
2021/12/19 01:28:20;;;;;;;15.70;14.00;;;;;;;18.31;40.78;102461.13;5053307;28;20048;-75
2021/12/19 01:30:47;;;;;;;17.45;14.75;;;;;;;18.31;40.82;102458.44;5053511;28;20095;-75
2021/12/19 01:33:15;;;;;;;17.35;14.73;;;;;;;18.30;40.96;102460.25;5051844;28;20045;-75
2021/12/19 01:35:43;;;;;;;17.80;14.52;;;;;;;18.32;40.91;102462.88;5051837;28;20060;-75
2021/12/19 01:38:10;;;;;;;17.10;13.63;;;;;;;18.29;40.99;102461.22;5053308;28;20052;-75
2021/12/19 01:40:38;;;;;;;17.15;14.43;;;;;;;18.29;41.01;102463.91;5053380;28;20049;-75
2021/12/19 01:43:06;;;;;;;17.90;15.00;;;;;;;18.29;41.01;102464.75;5053112;28;20057;-75
2021/12/19 01:45:37;;;;;;;17.25;14.35;;;;;;;18.28;40.95;102457.69;5053646;28;20048;-75
2021/12/19 01:48:10;;;;;;;18.10;13.93;;;;;;;18.28;41.05;102463.03;5052924;28;20064;-75
2021/12/19 01:50:38;;;;;;;;;;;;;;;18.27;40.91;102461.31;5053572;28;20053;-75
2021/12/19 01:53:10;;;;;;;17.48;14.30;;;;;;;18.27;40.96;102460.44;5053165;28;19928;-75
2021/12/19 01:55:40;;;;;;;18.00;15.00;;;;;;;18.25;40.99;102452.47;5052906;28;20517;-75
2021/12/19 01:58:08;;;;;;;16.30;13.98;;;;;;;18.25;41.06;102449.81;5051607;28;20424;-75
2021/12/19 02:00:39;;;;;;;17.83;14.88;;;;;;;18.24;41.05;102444.53;5052822;28;20045;-75
2021/12/19 02:03:08;;;;;;;21.30;15.70;;;;;;;18.24;40.97;102457.94;5053189;28;20045;-75
2021/12/19 02:05:36;;;;;;;16.75;14.95;;;;;;;18.23;40.94;102451.72;5052842;28;20052;-75
2021/12/19 02:08:07;;;;;;;18.95;15.00;;;;;;;18.23;40.63;102454.41;5052380;28;20052;-75
2021/12/19 02:10:35;;;;;;;18.52;13.75;;;;;;;18.23;40.77;102446.34;5053238;28;20060;-75
2021/12/19 02:13:05;;;;;;;18.17;14.70;;;;;;;18.24;40.86;102442.72;5048304;28;20056;-75
2021/12/19 02:15:34;;;;;;;17.30;14.77;;;;;;;18.24;40.83;102448.06;5051925;28;20045;-75
2021/12/19 02:18:09;;;;;;;17.70;14.25;;;;;;;18.25;40.78;102435.53;5053032;28;20048;-75
2021/12/19 02:20:43;;;;;;;19.13;14.02;;;;;;;18.25;40.75;102438.22;5052631;28;20396;-75
2021/12/19 02:23:11;;;;;;;18.23;15.23;;;;;;;18.24;40.71;102442.72;5052483;28;20531;-75
2021/12/19 02:25:39;;;;;;;15.55;13.77;;;;;;;18.25;40.64;102443.59;5051588;28;20049;-75
2021/12/19 02:28:07;;;;;;;15.57;13.43;;;;;;;18.23;40.85;102438.31;5052878;28;20057;-75
2021/12/19 02:30:36;;;;;;;18.02;13.77;;;;;;;18.24;40.52;102448.06;5051026;28;20053;-75
2021/12/19 02:33:14;;;;;;;19.00;14.90;;;;;;;18.24;40.79;102437.34;5051340;28;20045;-75
2021/12/19 02:35:48;;;;;;;16.65;13.65;;;;;;;18.24;40.57;102436.50;5052890;28;20048;-75
2021/12/19 02:49:23;;;;;;;16.02;13.35;;;;;;;18.21;40.49;102412.53;5052706;28;20044;-75
2021/12/19 02:51:53;;;;;;;17.73;13.70;;;;;;;18.20;40.57;102405.44;5052100;28;20508;-75
2021/12/19 02:54:22;;;;;;;15.63;13.10;;;;;;;18.20;40.47;102406.31;5051061;28;20063;-75
2021/12/19 02:56:50;;;;;;;17.13;14.45;;;;;;;18.20;40.67;102408.13;5050779;28;20045;-75
2021/12/19 02:59:18;;;;;;;16.60;14.25;;;;;;;18.18;40.70;102408.19;5052024;28;20056;-75
2021/12/19 03:01:46;;;;;;;17.13;13.85;;;;;;;18.18;40.60;102400.16;5052438;28;20049;-75
2021/12/19 03:04:14;;;;;;;16.27;13.25;;;;;;;18.17;40.56;102401.13;5052043;28;20099;-75
2021/12/19 03:06:46;;;;;;;17.48;13.13;;;;;;;18.17;40.49;102395.75;5052264;28;20064;-75
2021/12/19 03:09:27;;;;;;;15.50;12.63;;;;;;;18.17;40.48;102393.06;5052218;28;20052;-75
2021/12/19 03:12:03;;;;;;;15.10;13.00;;;;;;;18.16;40.49;102386.00;5052374;28;20405;-75
2021/12/19 03:20:03;;;;;;;15.38;12.88;;;;;;;18.13;40.55;102370.06;5052098;28;20104;-75
2021/12/19 03:22:31;;;;;;;15.85;13.27;;;;;;;18.13;40.48;102364.72;5052330;28;20397;-75
2021/12/19 03:24:58;;;;;;;17.90;13.57;;;;;;;18.13;40.50;102361.16;5055271;28;20056;-75
2021/12/19 03:27:26;;;;;;;14.13;12.57;;;;;;;18.13;40.38;102370.06;5055501;28;20041;-75
2021/12/19 03:29:54;;;;;;;15.02;12.80;;;;;;;18.12;40.40;102354.94;5054237;28;20049;-75
2021/12/19 03:32:24;;;;;;;18.60;14.05;;;;;;;18.12;40.25;102354.09;5054449;28;20041;-75
2021/12/19 03:34:51;;;;;;;16.02;13.75;;;;;;;18.12;40.36;102354.94;5055282;28;20045;-75
2021/12/19 03:37:18;;;;;;;15.40;13.23;;;;;;;18.12;40.37;102364.81;5055338;28;20048;-75
2021/12/19 03:39:57;;;;;;;17.63;14.45;;;;;;;18.09;40.41;102357.81;5055991;28;20048;-75
2021/12/19 03:42:25;;;;;;;17.55;13.57;;;;;;;18.09;40.34;102357.81;5055398;28;20064;-76
2021/12/19 03:44:53;;;;;;;17.23;13.55;;;;;;;18.08;40.33;102348.03;5053979;28;20481;-75
2021/12/19 03:47:21;;;;;;;15.75;13.48;;;;;;;18.07;40.42;102364.19;5055481;28;20037;-75
2021/12/19 03:49:48;;;;;;;13.48;12.07;;;;;;;18.07;40.36;102361.50;5054016;28;20060;-76
2021/12/19 03:52:16;;;;;;;16.48;14.18;;;;;;;18.06;40.21;102357.97;5055146;28;20060;-75
2021/12/19 03:54:43;;;;;;;14.13;11.93;;;;;;;18.06;40.36;102357.09;5055649;28;20049;-75
2021/12/19 03:57:11;;;;;;;15.15;12.95;;;;;;;18.04;40.35;102341.97;5055035;28;20041;-75
2021/12/19 03:59:40;;;;;;;16.90;14.25;;;;;;;18.03;40.36;102339.41;5055110;28;20055;-75
2021/12/19 04:02:08;;;;;;;16.05;13.38;;;;;;;18.03;40.33;102331.38;5055264;28;20045;-76
2021/12/19 04:04:38;;;;;;;17.05;13.90;;;;;;;18.02;40.32;102335.84;5054747;28;20154;-76
2021/12/19 04:07:06;;;;;;;15.50;13.45;;;;;;;18.02;40.33;102324.25;5054772;28;20049;-75
2021/12/19 04:09:33;;;;;;;15.93;13.30;;;;;;;18.03;40.18;102326.00;5053454;28;20049;-75
2021/12/19 04:12:01;;;;;;;16.38;14.13;;;;;;;18.02;40.21;102326.94;5053664;28;20061;-75
2021/12/19 04:14:28;;;;;;;14.50;12.45;;;;;;;18.02;40.24;102326.94;5054853;28;20060;-75
2021/12/19 04:16:55;;;;;;;14.30;12.10;;;;;;;18.00;40.26;102324.34;5052450;28;20072;-75
2021/12/19 04:19:23;;;;;;;15.02;13.32;;;;;;;18.00;40.17;102313.63;5054549;28;20056;-75
2021/12/19 04:21:50;;;;;;;14.05;12.63;;;;;;;18.00;40.14;102312.78;5055114;28;20045;-75
2021/12/19 04:24:18;;;;;;;14.63;12.98;;;;;;;17.99;39.98;102311.06;5054536;28;20056;-75
2021/12/19 04:26:45;;;;;;;13.98;12.45;;;;;;;17.98;40.10;102320.00;5055037;28;20432;-75
2021/12/19 04:29:13;;;;;;;15.75;12.38;;;;;;;17.98;39.98;102328.06;5054276;28;20041;-75
2021/12/19 04:31:40;;;;;;;14.85;13.27;;;;;;;17.97;40.17;102329.00;5054368;28;20485;-75
2021/12/19 04:34:08;;;;;;;15.30;12.82;;;;;;;17.96;39.80;102322.78;5054611;28;20400;-75
2021/12/19 04:36:41;;;;;;;15.32;12.57;;;;;;;17.96;39.79;102324.63;5053063;28;20053;-75
2021/12/19 04:57:55;;;;;;;13.52;12.13;;;;;;;17.95;39.94;102299.63;5053939;28;20100;-76
2021/12/19 05:00:34;;;;;;;14.35;12.38;;;;;;;17.94;39.90;102297.88;5054339;28;20072;-76
2021/12/19 05:03:08;;;;;;;14.63;13.00;;;;;;;17.95;39.80;102290.75;5052916;28;20056;-76
2021/12/19 05:05:56;;;;;;;13.35;12.00;;;;;;;17.94;39.75;102289.84;5053633;28;20416;-76
2021/12/19 05:16:33;;;;;;;13.70;11.55;;;;;;;17.92;39.57;102278.38;5052817;28;20052;-76
2021/12/19 05:19:06;;;;;;;12.23;10.90;;;;;;;17.91;39.63;102275.78;5052911;28;20041;-76
2021/12/19 05:21:37;;;;;;;13.77;12.13;;;;;;;17.91;39.53;102282.00;5053607;28;20370;-76
2021/12/19 05:24:21;;;;;;;13.30;10.77;;;;;;;17.91;39.53;102273.13;5053921;28;20492;-75
2021/12/19 05:26:48;;;;;;;13.60;12.18;;;;;;;17.90;39.59;102282.94;5068921;28;20057;-75
2021/12/19 05:29:16;;;;;;;15.18;13.35;;;;;;;17.91;39.48;102279.34;5053338;28;20045;-75
2021/12/19 05:31:44;;;;;;;13.52;12.02;;;;;;;17.90;39.53;102285.63;5053546;28;20052;-75
2021/12/19 05:34:12;;;;;;;13.00;11.25;;;;;;;17.89;39.32;102278.53;5053200;28;20055;-76
2021/12/19 05:45:13;;;;;;;13.75;10.77;;;;;;;17.87;39.34;102248.31;5052919;28;20049;-75
2021/12/19 05:47:46;;;;;;;13.75;11.85;;;;;;;17.87;39.39;102252.81;5052748;28;20052;-76
2021/12/19 05:50:16;;;;;;;13.48;11.73;;;;;;;17.86;39.32;102241.19;5053478;28;20060;-76
2021/12/19 05:52:46;;;;;;;13.90;12.50;;;;;;;17.86;39.32;102241.19;5052863;28;20052;-75
2021/12/19 05:55:15;;;;;;;13.57;11.70;;;;;;;17.86;39.32;102235.84;5051221;28;20049;-76
2021/12/19 05:57:43;;;;;;;12.60;11.30;;;;;;;17.87;39.15;102234.06;5052278;28;20056;-76
2021/12/19 06:00:15;;;;;;;12.18;10.90;;;;;;;17.86;39.15;102226.94;5051545;28;20061;-76
2021/12/19 06:02:43;;;;;;;12.63;11.32;;;;;;;17.85;39.52;102218.03;5052854;28;20056;-76
2021/12/19 06:05:12;;;;;;;12.35;11.13;;;;;;;17.84;39.31;102207.44;5050907;28;20055;-76
2021/12/19 06:07:41;;;;;;;13.70;12.02;;;;;;;17.84;39.30;102196.72;5053135;28;20041;-76
2021/12/19 06:10:10;;;;;;;13.50;11.52;;;;;;;17.83;39.10;102206.56;5052549;28;20045;-76
2021/12/19 06:12:38;;;;;;;12.10;10.68;;;;;;;17.83;39.17;102195.00;5052719;28;20036;-76
2021/12/19 06:15:09;;;;;;;11.70;10.50;;;;;;;17.83;39.23;102205.72;5051816;28;20053;-76
2021/12/19 06:17:38;;;;;;;14.00;12.00;;;;;;;17.83;39.14;102211.06;5050750;28;20056;-76
2021/12/19 06:20:07;;;;;;;13.05;11.07;;;;;;;17.81;39.33;102203.09;5052658;28;20097;-75
2021/12/19 06:22:35;;;;;;;12.50;11.15;;;;;;;17.81;39.18;102199.56;5052430;28;20497;-75
2021/12/19 06:25:04;;;;;;;12.57;11.27;;;;;;;17.79;39.19;102189.81;5052520;28;20071;-75
2021/12/19 06:27:31;;;;;;;12.82;11.43;;;;;;;17.79;39.20;102197.00;5032466;28;20049;-75
2021/12/19 06:29:59;;;;;;;12.45;11.15;;;;;;;17.80;39.17;102185.31;5032741;28;20061;-75
2021/12/19 06:32:26;;;;;;;14.27;12.07;;;;;;;17.81;39.05;102188.84;5032499;28;20052;-75
2021/12/19 06:34:54;;;;;;;13.90;12.50;;;;;;;17.79;39.19;102184.44;5032473;28;20045;-75
2021/12/19 06:37:21;;;;;;;13.85;12.05;;;;;;;17.79;38.91;102170.19;5031731;28;20054;-76
2021/12/19 06:39:48;;;;;;;13.38;11.15;;;;;;;17.78;39.14;102161.31;5031406;28;20041;-76
2021/12/19 06:42:16;;;;;;;12.95;10.93;;;;;;;17.79;39.02;102156.81;5032343;28;20053;-75
2021/12/19 06:44:43;;;;;;;11.95;10.52;;;;;;;17.78;38.97;102155.94;5032623;28;20056;-76
2021/12/19 06:47:10;;;;;;;12.50;11.13;;;;;;;17.78;39.01;102155.06;5032294;28;20048;-76
2021/12/19 06:49:38;;;;;;;12.75;11.45;;;;;;;17.78;39.38;102165.78;5032297;28;20045;-76
2021/12/19 06:52:05;;;;;;;12.10;10.90;;;;;;;17.76;39.01;102165.88;5032633;28;20482;-76
2021/12/19 06:54:33;;;;;;;11.95;10.65;;;;;;;17.77;39.00;102162.22;5032468;28;20505;-76
2021/12/19 06:57:00;;;;;;;13.25;10.75;;;;;;;17.76;38.92;102165.88;5030453;28;20054;-75
2021/12/19 06:59:27;;;;;;;11.88;10.68;;;;;;;17.76;39.20;102170.38;5034833;28;20045;-75
2021/12/19 07:01:55;;;;;;;12.52;11.23;;;;;;;17.76;38.98;102176.59;5055982;28;20056;-75
2021/12/19 07:04:22;;;;;;;12.38;11.18;;;;;;;17.77;38.82;102172.09;5055990;28;20052;-76
2021/12/19 07:06:50;;;;;;;12.77;10.95;;;;;;;17.77;38.90;102170.28;5056556;28;20416;-76
2021/12/19 07:09:17;;;;;;;11.18;9.98;;;;;;;17.77;38.90;102169.41;5055761;28;20405;-76
2021/12/19 07:11:45;;;;;;;12.07;10.88;;;;;;;17.77;38.93;102164.06;5054668;28;20063;-76
2021/12/19 07:14:12;;;;;;;12.80;10.65;;;;;;;17.77;38.93;102161.38;5055994;28;20051;-75
2021/12/19 07:16:40;;;;;;;12.80;11.50;;;;;;;17.77;38.87;102161.38;5056215;28;20060;-75
2021/12/19 07:19:07;;;;;;;12.15;10.65;;;;;;;17.76;38.91;102149.81;5053269;28;20045;-75
2021/12/19 07:21:34;;;;;;;11.98;10.75;;;;;;;17.76;38.82;102147.13;5055732;28;20514;-75
2021/12/19 07:24:02;;;;;;;10.95;9.88;;;;;;;17.76;38.91;102138.22;5055508;28;20060;-75
2021/12/19 07:26:29;;;;;;;11.50;10.35;;;;;;;17.76;38.81;102139.09;5055957;28;20496;-76
2021/12/19 07:28:57;;;;;;;11.23;10.13;;;;;;;17.75;38.97;102139.19;5055782;28;20052;-76
2021/12/19 07:31:29;;;;;;;12.23;11.02;;;;;;;17.75;38.92;102147.22;5055555;28;20049;-76
2021/12/19 07:33:57;;;;;;;11.07;10.00;;;;;;;17.76;38.81;102155.16;5056264;28;20044;-75
2021/12/19 07:36:29;;;;;;;11.65;10.45;;;;;;;17.76;38.82;102148.94;5055896;28;20049;-75
2021/12/19 07:39:05;;;;;;;12.30;11.10;;;;;;;17.75;38.93;102152.59;5055354;28;20049;-75
2021/12/19 07:41:33;;;;;;;10.68;9.68;;;;;;;17.73;38.94;102155.28;5055310;28;20045;-76
2021/12/19 07:44:00;;;;;;;11.48;10.38;;;;;;;17.73;38.92;102157.97;5055081;28;20064;-76
2021/12/19 07:46:28;;;;;;;10.68;9.57;;;;;;;17.73;38.95;102155.28;5054388;28;20119;-75
2021/12/19 07:48:55;;;;;;;10.93;9.88;;;;;;;17.73;39.09;102138.38;5053556;28;20045;-75
2021/12/19 07:51:23;;;;;;;11.13;9.93;;;;;;;17.73;39.00;102141.03;5055766;28;20530;-75
2021/12/19 07:53:50;;;;;;;10.73;9.55;;;;;;;17.72;39.04;102156.25;5054944;28;20053;-75
2021/12/19 07:56:17;;;;;;;10.27;9.18;;;;;;;17.72;38.99;102150.91;5055067;28;20041;-75
2021/12/19 07:58:45;;;;;;;11.02;9.90;;;;;;;17.71;39.09;102145.66;5055296;28;20044;-76
2021/12/19 08:01:12;;;;;;;11.48;10.38;;;;;;;17.71;39.08;102143.81;5055026;28;20397;-76
2021/12/19 08:03:40;;;;;;;10.85;9.75;;;;;;;17.71;38.98;102146.50;5054158;28;20057;-76
2021/12/19 08:06:07;;;;;;;11.25;10.13;;;;;;;17.71;38.97;102143.81;5055006;28;20047;-76
2021/12/19 08:08:35;;;;;;;10.82;9.73;;;;;;;17.70;39.21;102144.78;5053611;28;20049;-76
2021/12/19 08:13:50;;;;;;;11.10;10.10;;;;;;;17.70;39.23;102150.13;5054657;28;20052;-76
2021/12/19 08:16:17;;;;;;;10.38;9.27;;;;;;;17.69;39.11;102152.88;5054595;28;20048;-76
2021/12/19 08:18:45;;;;;;;9.95;8.95;;;;;;;17.70;39.14;102160.84;5054471;28;20079;-75
2021/12/19 08:21:12;;;;;;;9.98;8.98;;;;;;;17.70;39.20;102152.81;5053886;28;20037;-75
2021/12/19 08:23:39;;;;;;;10.95;9.85;;;;;;;17.70;39.25;102149.25;5054735;28;20049;-75
2021/12/19 08:26:07;;;;;;;11.23;10.02;;;;;;;17.70;39.15;102146.56;5053898;28;20124;-75
2021/12/19 08:28:34;;;;;;;10.70;9.60;;;;;;;17.69;39.36;102153.75;5054421;28;20111;-75
2021/12/19 08:31:03;;;;;;;10.25;9.25;;;;;;;17.70;39.29;102154.59;5054344;28;20048;-75
2021/12/19 08:33:30;;;;;;;10.48;9.38;;;;;;;17.70;39.59;102158.19;5054907;28;20056;-75
2021/12/19 08:35:59;;;;;;;10.38;9.05;;;;;;;17.70;39.28;102151.94;5053318;28;20120;-75
2021/12/19 08:38:26;;;;;;;11.70;9.05;;;;;;;17.70;39.41;102144.78;5054294;28;20044;-74
2021/12/19 08:40:55;;;;;;;10.50;8.52;;;;;;;17.69;39.63;102143.03;5054775;28;20480;-75
2021/12/19 08:43:22;;;;;;;10.27;8.93;;;;;;;17.68;39.66;102145.81;5054312;28;20049;-75
2021/12/19 08:45:50;;;;;;;13.00;10.77;;;;;;;17.64;37.44;102141.59;5054719;28;20053;-75
2021/12/19 08:48:20;;;;;;;10.35;9.25;;;;;;;17.61;39.79;102133.72;5052815;28;20072;-75
2021/12/19 08:50:48;;;;;;;11.15;8.57;;;;;;;17.60;39.71;102129.31;5054109;28;20385;-76
2021/12/19 08:53:17;;;;;;;10.27;9.27;;;;;;;17.60;40.03;102127.50;5053868;28;20393;-76
2021/12/19 08:55:45;;;;;;;11.00;8.77;;;;;;;17.60;40.24;102126.66;5054673;28;20048;-76
2021/12/19 08:58:13;;;;;;;10.73;9.63;;;;;;;17.61;40.44;102120.34;5054223;28;20049;-76
2021/12/19 09:00:40;;;;;;;9.55;8.60;;;;;;;17.61;40.01;102125.69;5054623;28;20373;-76
2021/12/19 09:03:08;;;;;;;13.57;9.60;;;;;;;17.63;40.40;102121.13;5054127;28;20386;-76
2021/12/19 09:05:36;;;;;;;10.77;8.93;;;;;;;17.61;40.38;102118.50;5052088;28;20056;-76
2021/12/19 09:08:04;;;;;;;10.40;9.40;;;;;;;17.62;40.21;102117.56;5053045;28;20385;-77
2021/12/19 09:10:32;;;;;;;9.23;8.32;;;;;;;17.62;40.30;102117.56;5054012;28;20045;-76
2021/12/19 09:12:59;;;;;;;9.52;8.23;;;;;;;17.61;40.25;102113.16;5053882;28;20049;-75
2021/12/19 09:15:29;;;;;;;9.98;8.93;;;;;;;17.61;39.93;102109.63;5054106;28;20049;-76
2021/12/19 09:17:57;;;;;;;9.18;8.23;;;;;;;17.61;39.60;102097.09;5054027;28;20048;-75
2021/12/19 09:20:24;;;;;;;10.68;9.18;;;;;;;17.60;39.23;102095.38;5052788;28;20060;-76
2021/12/19 09:22:55;;;;;;;10.98;9.57;;;;;;;17.59;39.36;102092.81;5052468;28;20392;-75
2021/12/19 09:25:22;;;;;;;12.30;9.70;;;;;;;17.59;39.15;102096.34;5053828;28;20049;-76
2021/12/19 09:27:49;;;;;;;10.25;9.15;;;;;;;17.59;38.95;102090.97;5053591;28;20052;-75
2021/12/19 09:30:18;;;;;;;11.77;10.07;;;;;;;17.57;38.48;102087.50;5053333;28;20051;-76
2021/12/19 09:32:45;;;;;;;12.38;9.73;;;;;;;17.57;38.47;102083.97;5053087;28;20048;-76
2021/12/19 09:35:14;;;;;;;11.38;10.18;;;;;;;17.57;38.48;102083.97;5053323;28;20049;-79
2021/12/19 09:37:41;;;;;;;9.90;8.95;;;;;;;17.56;38.35;102077.75;5053486;28;20481;-75
2021/12/19 09:40:12;;;;;;;10.60;9.60;;;;;;;17.57;38.22;102075.94;5053586;28;20041;-75
2021/12/19 09:42:47;;;;;;;11.07;9.27;;;;;;;17.57;37.94;102073.28;5052690;28;20416;-75
2021/12/19 09:45:15;;;;;;;11.75;10.18;;;;;;;17.58;38.10;102070.50;5053284;28;20480;-75
2021/12/19 09:47:43;;;;;;;10.55;9.45;;;;;;;17.59;38.29;102068.69;5053280;28;20401;-78
2021/12/19 09:50:12;;;;;;;10.18;9.05;;;;;;;17.61;38.36;102069.47;5053571;28;20072;-76
2021/12/19 09:52:39;;;;;;;9.45;8.55;;;;;;;17.62;38.52;102065.81;5052009;28;20059;-75
2021/12/19 09:55:07;;;;;;;10.05;8.00;;;;;;;17.62;38.88;102052.44;5052311;28;20505;-75
2021/12/19 09:57:34;;;;;;;11.48;8.52;;;;;;;17.63;38.88;102046.16;5051935;28;20049;-75
2021/12/19 10:00:04;;;;;;;9.27;8.35;;;;;;;17.63;38.81;102040.78;5053222;28;20041;-75
2021/12/19 10:02:40;;;;;;;9.10;8.05;;;;;;;17.63;38.80;102041.66;5060408;28;20056;-76
2021/12/19 10:05:34;;;;;;;9.88;8.85;;;;;;;17.64;38.90;102019.25;5052001;28;20045;-76
2021/12/19 10:08:03;;;;;;;9.65;8.65;;;;;;;17.65;39.10;102018.31;5052681;28;20068;-76
2021/12/19 10:10:42;;;;;;;9.93;8.50;;;;;;;17.65;39.85;102023.66;5052872;28;20052;-76
2021/12/19 10:13:09;;;;;;;10.80;8.65;;;;;;;17.64;39.44;102021.94;5052521;28;20053;-77
2021/12/19 10:15:39;;;;;;;9.98;8.05;;;;;;;17.64;39.58;102021.09;5052759;28;20381;-77
2021/12/19 10:18:16;;;;;;;9.10;8.00;;;;;;;17.62;39.70;102010.44;5052959;28;20060;-77
2021/12/19 10:20:44;;;;;;;11.02;8.55;;;;;;;17.63;39.72;102012.19;5052640;28;20473;-77
2021/12/19 10:23:13;;;;;;;11.07;9.57;;;;;;;17.64;40.31;101996.97;5050542;28;20045;-77
2021/12/19 10:25:42;;;;;;;10.13;7.93;;;;;;;17.64;41.00;101986.28;5052809;28;20049;-77
2021/12/19 10:28:10;;;;;;;13.15;8.50;;;;;;;17.64;43.42;101978.22;5051760;28;20056;-77
2021/12/19 10:30:43;;;;;;;12.40;9.00;;;;;;;17.64;44.85;101975.56;5052669;28;20052;-76
2021/12/19 10:33:11;;;;;;;;;;;;;;;17.66;45.01;101974.53;5055006;28;20049;-75
2021/12/19 10:35:42;;;;;;;9.45;8.05;;;;;;;17.65;43.94;101964.75;5057034;28;20357;-81
2021/12/19 10:38:42;;;;;;;13.95;8.45;;;;;;;17.64;43.05;101965.69;5055344;28;20431;-76
2021/12/19 10:41:20;;;;;;;13.50;8.13;;;;;;;17.65;43.46;101963.88;5051974;28;20596;-76
2021/12/19 10:44:05;;;;;;;14.40;12.77;;;;;;;17.55;39.19;101952.88;5055859;28;20061;-76
2021/12/19 10:46:39;;;;;;;12.82;8.00;;;;;;;17.51;42.69;101952.19;5056451;28;20049;-77
2021/12/19 10:49:24;;;;;;;12.15;8.32;;;;;;;17.51;42.42;101951.34;5056491;28;20053;-77
2021/12/19 10:51:51;;;;;;;12.32;8.45;;;;;;;17.52;42.28;101937.84;5056293;28;20037;-77
2021/12/19 10:54:19;;;;;;;11.32;8.73;;;;;;;17.53;42.16;101939.56;5054966;28;20041;-77
2021/12/19 10:56:46;;;;;;;11.32;8.00;;;;;;;17.55;42.23;101935.00;5056498;28;20049;-77
2021/12/19 10:59:16;;;;;;;10.25;7.93;;;;;;;17.57;42.21;101929.53;5056179;28;20053;-77
2021/12/19 11:01:46;;;;;;;8.57;7.55;;;;;;;17.58;42.12;101925.91;5056127;28;20048;-77
2021/12/19 11:04:16;;;;;;;11.20;7.57;;;;;;;17.58;42.00;101931.25;5056200;28;20072;-76
2021/12/19 11:06:51;;;;;;;10.43;6.85;;;;;;;17.60;42.10;101928.50;5054735;28;20060;-76
2021/12/19 11:09:21;;;;;;;9.43;8.00;;;;;;;17.61;42.81;101925.72;5054815;28;20048;-76
2021/12/19 11:11:54;;;;;;;9.32;6.97;;;;;;;17.61;44.08;101916.81;5055739;28;20052;-76
2021/12/19 11:14:25;;;;;;;7.95;7.18;;;;;;;17.61;43.67;101919.50;5054672;28;20053;-76
2021/12/19 11:17:06;;;;;;;9.50;6.93;;;;;;;17.58;43.79;101909.81;5056057;28;20052;-76
2021/12/19 11:19:34;;;;;;;8.18;7.38;;;;;;;17.58;44.22;101893.75;5055677;28;20511;-76
2021/12/19 11:22:23;;;;;;;12.47;7.60;;;;;;;17.59;44.60;101890.16;5055634;28;20033;-76
2021/12/19 11:25:00;;;;;;;9.10;7.47;;;;;;;17.58;45.15;101882.19;5053830;28;20049;-76
2021/12/19 11:27:29;;;;;;;8.85;7.43;;;;;;;17.58;45.45;101876.84;5055974;28;20432;-76
2021/12/19 11:29:57;;;;;;;9.10;7.00;;;;;;;17.58;45.93;101877.69;5056009;28;20072;-76
2021/12/19 11:32:34;;;;;;;9.82;6.85;;;;;;;17.57;45.97;101865.28;5055577;28;20392;-76
2021/12/19 11:35:05;;;;;;;7.75;7.05;;;;;;;17.57;46.20;101859.06;5054435;28;20061;-76
2021/12/19 11:37:41;;;;;;;8.60;6.70;;;;;;;17.56;46.31;101858.22;5055903;28;20476;-76
2021/12/19 11:40:14;;;;;;;7.82;7.03;;;;;;;17.56;46.23;101844.81;5054231;28;20408;-76
2021/12/19 11:42:41;;;;;;;7.93;7.13;;;;;;;17.55;46.10;101833.25;5055167;28;20049;-76
2021/12/19 11:48:04;;;;;;;9.25;7.38;;;;;;;17.55;47.11;101821.69;5055217;28;20048;-76
2021/12/19 11:50:56;;;;;;;8.45;7.35;;;;;;;17.55;48.53;101809.16;5055116;28;20058;-77
2021/12/19 11:53:32;;;;;;;8.07;6.97;;;;;;;17.55;47.37;101806.47;5055232;28;20053;-76
2021/12/19 11:56:04;;;;;;;9.95;7.13;;;;;;;17.55;46.72;101813.66;5055800;28;20049;-78
2021/12/19 11:58:38;;;;;;;9.88;7.65;;;;;;;17.55;46.94;101809.16;5054346;28;20416;-79
2021/12/19 12:01:09;;;;;;;8.43;7.28;;;;;;;17.55;47.85;101803.81;5054670;28;20037;-77
2021/12/19 12:03:39;;;;;;;10.88;6.93;;;;;;;17.57;47.75;101800.16;5055162;28;20049;-79
2021/12/19 12:06:22;;;;;;;9.88;7.07;;;;;;;17.58;46.91;101796.50;5054875;28;20071;-78
2021/12/19 12:09:16;;;;;;;8.02;6.82;;;;;;;17.58;47.30;101796.50;5054984;28;20063;-78
2021/12/19 12:11:58;;;;;;;8.52;7.57;;;;;;;17.56;47.46;101785.91;5055347;28;20045;-77
2021/12/19 12:14:29;;;;;;;9.38;7.88;;;;;;;17.57;48.14;101784.94;5055012;28;20052;-78
2021/12/19 12:17:01;;;;;;;11.85;8.00;;;;;;;17.56;48.86;101785.91;5055013;28;20056;-77
2021/12/19 12:19:41;;;;;;;8.95;7.57;;;;;;;17.56;50.92;101783.25;5055238;28;20401;-77
2021/12/19 12:22:28;;;;;;;15.15;9.10;;;;;;;17.55;51.11;101777.03;5055030;28;20037;-76
2021/12/19 12:25:12;;;;;;;11.38;8.50;;;;;;;17.56;52.64;101772.53;5052781;28;20041;-77
2021/12/19 12:27:51;;;;;;;9.18;7.80;;;;;;;17.57;52.14;101762.69;5054981;28;20500;-77
2021/12/19 12:30:26;;;;;;;10.98;8.52;;;;;;;17.56;52.25;101759.13;5054444;28;20049;-78